Time;durP1;ratioP1;P1;durP2;ratioP2;P2;SDS_P1;SDS_P2;PMS_P1;PMS_P2;Temp;Humidity;BMP_temperature;BMP_pressure;BME280_temperature;BME280_humidity;BME280_pressure;Samples;Min_cycle;Max_cycle;Signal;HPM_P1;HPM_P2
2023/07/23 00:00:36;;;;;;;2.93;2.07;;;;;;;;;;5037693;28;20223;-65
2023/07/23 00:03:04;;;;;;;3.23;2.63;;;;;;;;;;5037006;28;20305;-65
2023/07/23 00:05:32;;;;;;;3.70;2.40;;;;;;;;;;5051903;28;20608;-65
2023/07/23 00:08:00;;;;;;;3.43;2.20;;;;;;;;;;5037100;28;20209;-65
2023/07/23 00:10:29;;;;;;;2.27;2.07;;;;;;;;;;5037176;28;20235;-65
2023/07/23 00:12:57;;;;;;;2.67;2.47;;;;;;;;;;5037058;28;20603;-65
2023/07/23 00:15:24;;;;;;;1.60;1.50;;;;;;;;;;5037936;28;20211;-65
2023/07/23 00:17:52;;;;;;;3.20;2.10;;;;;;;;;;5040473;28;20208;-65
2023/07/23 00:20:20;;;;;;;1.67;1.57;;;;;;;;;;5040859;28;20277;-65
2023/07/23 00:22:47;;;;;;;2.27;1.80;;;;;;;;;;5040931;28;20209;-65
2023/07/23 00:25:15;;;;;;;1.70;1.60;;;;;;;;;;5040824;28;20212;-65
2023/07/23 00:27:44;;;;;;;4.20;1.60;;;;;;;;;;5040602;28;20499;-65
2023/07/23 00:30:15;;;;;;;2.00;1.90;;;;;;;;;;5040538;28;20584;-65
2023/07/23 00:32:46;;;;;;;1.70;1.60;;;;;;;;;;5040340;28;20237;-65
2023/07/23 00:35:14;;;;;;;2.27;1.73;;;;;;;;;;5040414;28;20571;-65
2023/07/23 00:37:42;;;;;;;1.73;1.63;;;;;;;;;;5040341;28;20270;-65
2023/07/23 00:40:10;;;;;;;1.90;1.80;;;;;;;;;;5045704;28;20227;-65
2023/07/23 00:42:38;;;;;;;2.27;1.40;;;;;;;;;;5045801;28;20216;-65
2023/07/23 00:45:08;;;;;;;3.07;1.80;;;;;;;;;;5040630;28;20218;-65
2023/07/23 00:47:35;;;;;;;2.17;1.70;;;;;;;;;;5040201;28;20215;-65
2023/07/23 00:50:03;;;;;;;1.50;1.40;;;;;;;;;;5040096;28;20231;-65
2023/07/23 00:52:31;;;;;;;2.13;1.83;;;;;;;;;;5041745;28;20306;-65
2023/07/23 00:54:59;;;;;;;3.03;2.00;;;;;;;;;;5060059;28;20207;-65
2023/07/23 00:57:27;;;;;;;1.30;1.20;;;;;;;;;;5044590;28;20212;-65
2023/07/23 00:59:56;;;;;;;3.50;2.07;;;;;;;;;;5041193;28;20226;-65
2023/07/23 01:02:25;;;;;;;2.83;2.10;;;;;;;;;;5039646;28;20556;-66
2023/07/23 01:04:53;;;;;;;1.70;1.60;;;;;;;;;;5050676;28;20329;-65
2023/07/23 01:07:22;;;;;;;1.80;1.50;;;;;;;;;;5058205;28;20661;-65
2023/07/23 01:09:50;;;;;;;1.60;1.50;;;;;;;;;;5059560;28;20315;-65
2023/07/23 01:12:19;;;;;;;1.40;1.30;;;;;;;;;;5059647;28;20315;-65
2023/07/23 01:14:47;;;;;;;4.03;1.40;;;;;;;;;;5060029;28;20543;-65
2023/07/23 01:17:16;;;;;;;1.57;1.47;;;;;;;;;;5059697;28;20216;-65
2023/07/23 01:19:46;;;;;;;2.57;1.30;;;;;;;;;;5059510;28;20211;-65
2023/07/23 01:22:15;;;;;;;1.47;1.40;;;;;;;;;;5059426;28;20616;-65
2023/07/23 01:24:43;;;;;;;1.97;1.70;;;;;;;;;;5039846;28;20213;-65
2023/07/23 01:27:10;;;;;;;1.30;1.13;;;;;;;;;;5038727;28;20210;-66
2023/07/23 01:29:38;;;;;;;2.20;1.50;;;;;;;;;;5039723;28;20212;-65
2023/07/23 01:32:06;;;;;;;1.53;1.40;;;;;;;;;;5039015;28;20669;-65
2023/07/23 01:34:34;;;;;;;1.40;1.30;;;;;;;;;;5039387;28;20249;-65
2023/07/23 01:37:02;;;;;;;1.60;1.30;;;;;;;;;;5039238;28;20569;-65
2023/07/23 01:39:33;;;;;;;1.50;1.40;;;;;;;;;;5039188;28;20214;-65
2023/07/23 01:42:01;;;;;;;1.63;1.40;;;;;;;;;;5039555;28;20226;-65
2023/07/23 01:44:29;;;;;;;3.60;1.50;;;;;;;;;;5039428;28;20212;-65
2023/07/23 01:46:56;;;;;;;1.77;1.50;;;;;;;;;;5039125;28;20276;-65
2023/07/23 01:49:24;;;;;;;1.70;1.60;;;;;;;;;;5039413;28;20202;-65
2023/07/23 01:51:52;;;;;;;2.17;1.60;;;;;;;;;;5038990;28;20231;-65
2023/07/23 01:54:19;;;;;;;1.40;1.30;;;;;;;;;;5039375;28;20567;-65
2023/07/23 01:56:49;;;;;;;1.73;1.63;;;;;;;;;;5039204;28;20659;-65
2023/07/23 01:59:16;;;;;;;2.00;1.80;;;;;;;;;;5044219;28;20205;-65
2023/07/23 02:01:44;;;;;;;2.17;1.50;;;;;;;;;;5040974;28;20223;-65
2023/07/23 02:04:12;;;;;;;1.50;1.40;;;;;;;;;;5044985;28;20205;-65
2023/07/23 02:06:40;;;;;;;2.07;1.63;;;;;;;;;;5047372;28;20213;-65
2023/07/23 02:09:07;;;;;;;1.73;1.57;;;;;;;;;;5038910;28;20218;-65
2023/07/23 02:11:35;;;;;;;2.87;1.47;;;;;;;;;;5038579;28;20238;-65
2023/07/23 02:14:04;;;;;;;4.50;1.60;;;;;;;;;;5038813;28;20214;-65
2023/07/23 02:16:32;;;;;;;2.07;1.87;;;;;;;;;;5038598;28;20302;-65
2023/07/23 02:19:00;;;;;;;3.77;1.97;;;;;;;;;;5038386;28;20257;-65
2023/07/23 02:21:28;;;;;;;3.00;2.33;;;;;;;;;;5038282;28;20231;-65
2023/07/23 02:23:56;;;;;;;2.73;1.77;;;;;;;;;;5045336;28;20243;-65
2023/07/23 02:26:24;;;;;;;2.87;2.20;;;;;;;;;;5058490;28;20291;-65
2023/07/23 02:28:51;;;;;;;2.83;2.10;;;;;;;;;;5058368;28;20677;-65
2023/07/23 02:31:23;;;;;;;4.43;2.30;;;;;;;;;;5058135;28;20687;-65
2023/07/23 02:33:51;;;;;;;2.67;2.07;;;;;;;;;;5058078;28;20243;-65
2023/07/23 02:36:19;;;;;;;2.27;2.03;;;;;;;;;;5057944;28;20301;-65
2023/07/23 02:38:47;;;;;;;2.37;1.87;;;;;;;;;;5057224;28;20570;-65
2023/07/23 02:41:14;;;;;;;2.80;2.10;;;;;;;;;;5055946;28;20220;-65
2023/07/23 02:43:42;;;;;;;2.97;2.20;;;;;;;;;;5038358;28;20219;-65
2023/07/23 02:46:10;;;;;;;2.80;2.60;;;;;;;;;;5037996;28;20751;-65
2023/07/23 02:48:39;;;;;;;3.20;2.10;;;;;;;;;;5038298;28;20212;-65
2023/07/23 02:51:07;;;;;;;2.73;1.90;;;;;;;;;;5037672;28;20335;-65
2023/07/23 02:53:34;;;;;;;3.30;2.40;;;;;;;;;;5038217;28;20648;-65
2023/07/23 02:56:02;;;;;;;5.37;3.03;;;;;;;;;;5038121;28;20208;-65
2023/07/23 02:58:30;;;;;;;3.23;2.50;;;;;;;;;;5038178;28;20276;-65
2023/07/23 03:00:58;;;;;;;4.20;2.70;;;;;;;;;;5038664;28;20228;-65
2023/07/23 03:03:26;;;;;;;4.30;2.40;;;;;;;;;;5038067;28;20239;-65
2023/07/23 03:05:55;;;;;;;2.90;2.67;;;;;;;;;;5050970;28;20692;-64
2023/07/23 03:08:23;;;;;;;3.77;2.70;;;;;;;;;;5055263;28;20228;-65
2023/07/23 03:10:54;;;;;;;3.73;3.00;;;;;;;;;;5044211;28;20292;-65
2023/07/23 03:13:22;;;;;;;3.90;2.60;;;;;;;;;;5037721;28;20594;-65
2023/07/23 03:15:50;;;;;;;5.13;2.53;;;;;;;;;;5037636;28;20243;-65
2023/07/23 03:18:18;;;;;;;2.47;2.23;;;;;;;;;;5037642;28;20215;-65
2023/07/23 03:20:45;;;;;;;4.67;2.90;;;;;;;;;;5037858;28;20243;-65
2023/07/23 03:23:15;;;;;;;3.50;2.60;;;;;;;;;;5037493;28;20199;-65
2023/07/23 03:25:43;;;;;;;4.93;3.27;;;;;;;;;;5037524;28;20211;-66
2023/07/23 03:28:10;;;;;;;3.77;3.03;;;;;;;;;;5039053;28;20204;-65
2023/07/23 03:30:38;;;;;;;3.63;2.73;;;;;;;;;;5054900;28;20686;-66
2023/07/23 03:33:06;;;;;;;4.47;2.23;;;;;;;;;;5067047;28;20608;-66
2023/07/23 03:35:34;;;;;;;4.07;2.73;;;;;;;;;;5065930;28;20204;-66
2023/07/23 03:38:01;;;;;;;3.73;2.87;;;;;;;;;;5064766;28;20202;-66
2023/07/23 03:40:31;;;;;;;4.07;3.20;;;;;;;;;;5064730;28;20310;-65
2023/07/23 03:42:58;;;;;;;4.13;3.07;;;;;;;;;;5063048;28;20206;-66
2023/07/23 03:45:26;;;;;;;3.50;2.60;;;;;;;;;;5062934;28;20199;-66
2023/07/23 03:47:57;;;;;;;4.70;2.67;;;;;;;;;;5067342;28;20676;-66
2023/07/23 03:50:25;;;;;;;3.80;2.67;;;;;;;;;;5065935;28;20250;-65
2023/07/23 03:52:55;;;;;;;5.17;2.90;;;;;;;;;;5067727;28;20231;-64
2023/07/23 03:55:25;;;;;;;3.57;2.80;;;;;;;;;;5065270;28;20202;-64
2023/07/23 03:57:54;;;;;;;3.77;3.47;;;;;;;;;;5071609;28;20568;-64
2023/07/23 04:00:22;;;;;;;4.83;4.23;;;;;;;;;;5071909;28;20223;-64
2023/07/23 04:02:50;;;;;;;3.73;2.67;;;;;;;;;;5067703;28;20203;-64
2023/07/23 04:05:18;;;;;;;4.90;2.30;;;;;;;;;;5067101;28;20206;-64
2023/07/23 04:07:46;;;;;;;6.33;3.03;;;;;;;;;;5065216;28;20198;-66
2023/07/23 04:10:13;;;;;;;3.83;3.23;;;;;;;;;;5071099;28;20225;-64
2023/07/23 04:12:41;;;;;;;3.20;2.43;;;;;;;;;;5070313;28;20309;-64
2023/07/23 04:15:11;;;;;;;5.20;3.50;;;;;;;;;;5066909;28;20216;-64
2023/07/23 04:17:38;;;;;;;6.33;3.20;;;;;;;;;;5067692;28;20208;-64
2023/07/23 04:20:07;;;;;;;3.67;2.30;;;;;;;;;;5067997;28;20222;-64
2023/07/23 04:22:35;;;;;;;3.30;2.97;;;;;;;;;;5071232;28;20225;-64
2023/07/23 04:25:03;;;;;;;3.50;3.20;;;;;;;;;;5069143;28;20206;-65
2023/07/23 04:27:31;;;;;;;3.70;2.40;;;;;;;;;;5069635;28;20231;-64
2023/07/23 04:29:58;;;;;;;5.70;4.20;;;;;;;;;;5061865;28;20215;-64
2023/07/23 04:32:28;;;;;;;3.27;2.93;;;;;;;;;;5066941;28;20272;-65
2023/07/23 04:34:58;;;;;;;3.47;3.17;;;;;;;;;;5070162;28;20232;-64
2023/07/23 04:37:26;;;;;;;3.30;3.00;;;;;;;;;;5069046;28;20206;-65
2023/07/23 04:39:54;;;;;;;4.10;3.17;;;;;;;;;;5063811;28;20229;-65
2023/07/23 04:42:24;;;;;;;6.27;2.93;;;;;;;;;;5070541;28;20201;-66
2023/07/23 04:44:53;;;;;;;8.70;3.83;;;;;;;;;;5070642;28;20272;-65
2023/07/23 04:47:21;;;;;;;3.20;2.90;;;;;;;;;;5069896;28;20202;-66
2023/07/23 04:49:50;;;;;;;3.87;3.57;;;;;;;;;;5067385;28;20680;-66
2023/07/23 04:52:18;;;;;;;3.60;2.93;;;;;;;;;;5066367;28;20222;-66
2023/07/23 04:54:46;;;;;;;3.57;3.20;;;;;;;;;;5068859;28;20205;-64
2023/07/23 04:57:14;;;;;;;4.10;3.80;;;;;;;;;;5068270;28;20210;-64
2023/07/23 04:59:42;;;;;;;5.57;4.23;;;;;;;;;;5062519;28;20199;-64
2023/07/23 05:02:11;;;;;;;3.70;3.27;;;;;;;;;;5054359;28;20241;-64
2023/07/23 05:04:39;;;;;;;6.20;5.70;;;;;;;;;;5053765;28;20206;-64
2023/07/23 05:07:08;;;;;;;5.50;5.03;;;;;;;;;;5044977;28;20207;-64
2023/07/23 05:09:36;;;;;;;3.53;3.13;;;;;;;;;;5052133;28;20199;-65
2023/07/23 05:12:04;;;;;;;3.30;3.00;;;;;;;;;;5060317;28;20221;-66
2023/07/23 05:14:34;;;;;;;4.27;3.87;;;;;;;;;;5059760;28;20236;-66
2023/07/23 05:17:02;;;;;;;7.23;4.50;;;;;;;;;;5059753;28;20551;-65
2023/07/23 05:19:34;;;;;;;4.33;3.40;;;;;;;;;;5059796;28;20214;-66
2023/07/23 05:22:02;;;;;;;4.60;4.20;;;;;;;;;;5059754;28;20217;-64
2023/07/23 05:24:31;;;;;;;5.10;4.20;;;;;;;;;;5060328;28;20619;-64
2023/07/23 05:27:01;;;;;;;5.27;3.80;;;;;;;;;;5059769;28;20233;-64
2023/07/23 05:29:29;;;;;;;4.07;2.87;;;;;;;;;;5059486;28;20688;-64
2023/07/23 05:31:56;;;;;;;4.03;3.63;;;;;;;;;;5059502;28;20202;-64
2023/07/23 05:34:24;;;;;;;3.37;3.07;;;;;;;;;;5059157;28;20242;-64
2023/07/23 05:36:52;;;;;;;6.90;5.93;;;;;;;;;;5059833;28;20202;-64
2023/07/23 05:39:20;;;;;;;5.40;4.90;;;;;;;;;;5054174;28;20301;-64
2023/07/23 05:41:49;;;;;;;7.77;5.63;;;;;;;;;;5044867;28;20230;-64
2023/07/23 05:44:17;;;;;;;3.73;3.43;;;;;;;;;;5045549;28;20617;-64
2023/07/23 05:46:45;;;;;;;4.30;3.90;;;;;;;;;;5059083;28;20294;-65
2023/07/23 05:49:13;;;;;;;4.43;3.97;;;;;;;;;;5059173;28;20721;-65
2023/07/23 05:51:40;;;;;;;3.27;3.07;;;;;;;;;;5058493;28;20227;-65
2023/07/23 05:54:08;;;;;;;3.67;3.20;;;;;;;;;;5058909;28;20595;-64
2023/07/23 05:56:37;;;;;;;4.13;2.83;;;;;;;;;;5059093;28;20245;-64
2023/07/23 05:59:06;;;;;;;7.97;3.50;;;;;;;;;;5058982;28;20214;-64
2023/07/23 06:01:33;;;;;;;3.80;2.77;;;;;;;;;;5043403;28;20234;-65
2023/07/23 06:04:03;;;;;;;4.30;3.80;;;;;;;;;;5043355;28;20195;-64
2023/07/23 06:06:31;;;;;;;2.73;2.53;;;;;;;;;;5048650;28;20214;-64
2023/07/23 06:08:59;;;;;;;3.30;2.60;;;;;;;;;;5038932;28;20208;-65
2023/07/23 06:11:29;;;;;;;4.33;2.73;;;;;;;;;;5038988;28;20227;-64
2023/07/23 06:14:02;;;;;;;4.03;3.67;;;;;;;;;;5038612;28;20230;-64
2023/07/23 06:16:31;;;;;;;6.37;3.47;;;;;;;;;;5038621;28;20258;-64
2023/07/23 06:18:59;;;;;;;4.73;4.17;;;;;;;;;;5038918;28;20235;-64
2023/07/23 06:21:27;;;;;;;3.53;3.03;;;;;;;;;;5038592;28;20687;-64
2023/07/23 06:23:55;;;;;;;3.67;3.17;;;;;;;;;;5038452;28;20201;-64
2023/07/23 06:26:23;;;;;;;4.73;3.07;;;;;;;;;;5038674;28;20211;-65
2023/07/23 06:28:51;;;;;;;4.17;3.13;;;;;;;;;;5045292;28;20213;-64
2023/07/23 06:31:18;;;;;;;3.73;3.07;;;;;;;;;;5058088;28;20239;-64
2023/07/23 06:33:48;;;;;;;3.60;3.27;;;;;;;;;;5058040;28;20698;-65
2023/07/23 06:36:15;;;;;;;4.50;2.93;;;;;;;;;;5058255;28;20211;-65
2023/07/23 06:38:43;;;;;;;4.83;3.67;;;;;;;;;;5058204;28;20222;-63
2023/07/23 06:41:11;;;;;;;3.93;3.60;;;;;;;;;;5056802;28;20294;-64
2023/07/23 06:43:38;;;;;;;5.37;4.87;;;;;;;;;;5051115;28;20250;-65
2023/07/23 06:46:06;;;;;;;3.83;3.33;;;;;;;;;;5058092;28;20211;-64
2023/07/23 06:48:34;;;;;;;5.83;4.93;;;;;;;;;;5057862;28;20747;-63
2023/07/23 06:51:03;;;;;;;11.17;4.97;;;;;;;;;;5057999;28;20230;-63
2023/07/23 06:53:31;;;;;;;3.70;3.40;;;;;;;;;;5057871;28;20586;-63
2023/07/23 06:56:00;;;;;;;5.73;5.20;;;;;;;;;;5058066;28;20211;-63
2023/07/23 06:58:28;;;;;;;6.53;4.33;;;;;;;;;;5057828;28;20208;-64
2023/07/23 07:00:57;;;;;;;5.40;4.70;;;;;;;;;;5047195;28;20645;-64
2023/07/23 07:03:25;;;;;;;5.90;5.13;;;;;;;;;;5037991;28;20704;-64
2023/07/23 07:05:53;;;;;;;5.40;4.83;;;;;;;;;;5056490;28;20209;-64
2023/07/23 07:08:22;;;;;;;8.73;5.33;;;;;;;;;;5039658;28;20207;-64
2023/07/23 07:10:51;;;;;;;4.87;4.43;;;;;;;;;;5038049;28;20229;-63
2023/07/23 07:13:18;;;;;;;4.97;4.53;;;;;;;;;;5037598;28;20207;-64
2023/07/23 07:15:46;;;;;;;6.03;4.27;;;;;;;;;;5037446;28;20220;-63
2023/07/23 07:18:14;;;;;;;4.50;4.10;;;;;;;;;;5037784;28;20213;-65
2023/07/23 07:20:42;;;;;;;3.57;3.20;;;;;;;;;;5037423;28;20263;-66
2023/07/23 07:23:10;;;;;;;6.47;5.87;;;;;;;;;;5044525;28;20209;-64
2023/07/23 07:25:39;;;;;;;6.33;5.73;;;;;;;;;;5060679;28;20201;-64
2023/07/23 07:28:06;;;;;;;3.83;3.53;;;;;;;;;;5064309;28;20277;-65
2023/07/23 07:30:35;;;;;;;4.00;3.70;;;;;;;;;;5063329;28;20229;-63
2023/07/23 07:33:03;;;;;;;5.53;5.10;;;;;;;;;;5061824;28;20249;-65
2023/07/23 07:35:32;;;;;;;4.23;3.90;;;;;;;;;;5067015;28;20234;-64
2023/07/23 07:38:00;;;;;;;4.20;3.10;;;;;;;;;;5063642;28;20566;-64
2023/07/23 07:40:28;;;;;;;8.30;7.47;;;;;;;;;;5058298;28;20690;-64
2023/07/23 07:42:57;;;;;;;4.63;4.23;;;;;;;;;;5048545;28;20205;-64
2023/07/23 07:45:25;;;;;;;5.07;2.80;;;;;;;;;;5060549;28;20292;-64
2023/07/23 07:47:53;;;;;;;3.00;2.80;;;;;;;;;;5063526;28;20577;-63
2023/07/23 07:50:21;;;;;;;4.47;3.50;;;;;;;;;;5053861;28;20231;-64
2023/07/23 07:52:48;;;;;;;3.17;2.87;;;;;;;;;;5044080;28;20724;-64
2023/07/23 07:55:16;;;;;;;3.83;2.50;;;;;;;;;;5043926;28;20228;-64
2023/07/23 07:57:45;;;;;;;5.43;3.10;;;;;;;;;;5043828;28;20675;-65
2023/07/23 08:00:14;;;;;;;4.07;2.60;;;;;;;;;;5048586;28;20227;-64
2023/07/23 08:02:42;;;;;;;3.67;3.33;;;;;;;;;;5043237;28;20243;-65
2023/07/23 08:05:11;;;;;;;3.90;2.50;;;;;;;;;;5057796;28;20205;-65
2023/07/23 08:07:39;;;;;;;3.60;3.10;;;;;;;;;;5047780;28;20261;-65
2023/07/23 08:10:08;;;;;;;3.10;2.83;;;;;;;;;;5043655;28;20223;-65
2023/07/23 08:12:36;;;;;;;3.90;2.80;;;;;;;;;;5043451;28;20297;-66
2023/07/23 08:15:05;;;;;;;2.83;2.17;;;;;;;;;;5043684;28;20241;-65
2023/07/23 08:17:34;;;;;;;6.20;2.37;;;;;;;;;;5043302;28;20209;-66
2023/07/23 08:20:03;;;;;;;4.23;3.30;;;;;;;;;;5043496;28;20240;-65
2023/07/23 08:22:31;;;;;;;3.93;2.73;;;;;;;;;;5043494;28;20219;-67
2023/07/23 08:24:59;;;;;;;7.20;3.27;;;;;;;;;;5044938;28;20238;-66
2023/07/23 08:27:28;;;;;;;6.27;3.37;;;;;;;;;;5044945;28;20214;-66
2023/07/23 08:29:56;;;;;;;8.10;4.00;;;;;;;;;;5043255;28;20239;-66
2023/07/23 08:32:25;;;;;;;5.27;3.47;;;;;;;;;;5058772;28;20207;-66
2023/07/23 08:34:55;;;;;;;4.37;3.17;;;;;;;;;;5043987;28;20259;-66
2023/07/23 08:37:23;;;;;;;3.47;2.60;;;;;;;;;;5044435;28;20212;-66
2023/07/23 08:39:51;;;;;;;4.67;3.43;;;;;;;;;;5043301;28;20314;-66
2023/07/23 08:42:33;;;;;;;6.27;4.63;;;;;;;;;;5042912;28;20203;-66
2023/07/23 08:45:24;;;;;;;2.77;2.20;;;;;;;;;;5038777;28;20205;-66
2023/07/23 08:47:59;;;;;;;5.90;3.60;;;;;;;;;;5039948;28;20605;-66
2023/07/23 08:50:29;;;;;;;3.43;2.67;;;;;;;;;;5040375;28;20227;-67
2023/07/23 08:52:57;;;;;;;3.70;2.70;;;;;;;;;;5040334;28;20277;-67
2023/07/23 08:55:25;;;;;;;3.37;2.50;;;;;;;;;;5040397;28;20230;-66
2023/07/23 08:57:53;;;;;;;4.30;2.90;;;;;;;;;;5040601;28;20214;-66
2023/07/23 09:00:27;;;;;;;3.20;2.73;;;;;;;;;;5049049;28;20596;-66
2023/07/23 09:02:55;;;;;;;3.47;2.50;;;;;;;;;;5039952;28;20247;-66
2023/07/23 09:05:23;;;;;;;11.17;6.27;;;;;;;;;;5040197;28;20239;-66
2023/07/23 09:07:52;;;;;;;4.07;2.73;;;;;;;;;;5039849;28;20237;-64
2023/07/23 09:10:22;;;;;;;3.37;2.50;;;;;;;;;;5040065;28;20231;-67
2023/07/23 09:12:50;;;;;;;2.87;2.57;;;;;;;;;;5040147;28;20596;-67
2023/07/23 09:15:18;;;;;;;4.00;2.67;;;;;;;;;;5039652;28;20231;-66
2023/07/23 09:17:49;;;;;;;2.30;2.10;;;;;;;;;;5039609;28;20664;-65
2023/07/23 09:20:18;;;;;;;3.43;2.50;;;;;;;;;;5039945;28;20254;-63
2023/07/23 09:22:46;;;;;;;3.17;2.13;;;;;;;;;;5039665;28;20204;-62
2023/07/23 09:25:15;;;;;;;2.57;2.10;;;;;;;;;;5039592;28;20567;-62
2023/07/23 09:27:43;;;;;;;3.80;2.40;;;;;;;;;;5039507;28;20249;-64
2023/07/23 09:30:18;;;;;;;4.23;2.87;;;;;;;;;;5039800;28;20223;-64
2023/07/23 09:32:55;;;;;;;3.75;2.53;;;;;;;;;;5052715;28;20272;-64
2023/07/23 09:35:24;;;;;;;3.27;2.37;;;;;;;;;;5039264;28;20226;-64
2023/07/23 09:37:55;;;;;;;3.63;2.30;;;;;;;;;;5039369;28;20214;-64
2023/07/23 09:40:32;;;;;;;3.85;2.67;;;;;;;;;;5045157;28;20226;-64
2023/07/23 09:43:00;;;;;;;3.78;2.90;;;;;;;;;;5039478;28;20719;-63
2023/07/23 09:45:29;;;;;;;3.28;2.50;;;;;;;;;;5039478;28;20220;-64
2023/07/23 09:47:57;;;;;;;4.75;2.95;;;;;;;;;;5038609;28;20213;-64
2023/07/23 09:50:43;;;;;;;3.72;2.55;;;;;;;;;;5045976;28;20268;-66
2023/07/23 09:53:11;;;;;;;4.07;3.00;;;;;;;;;;5059118;28;20216;-62
2023/07/23 09:55:40;;;;;;;3.85;3.13;;;;;;;;;;5058853;28;20233;-64
2023/07/23 09:58:09;;;;;;;4.60;2.85;;;;;;;;;;5059194;28;20222;-64
2023/07/23 10:00:38;;;;;;;4.32;3.83;;;;;;;;;;5050368;28;20275;-68
2023/07/23 10:03:06;;;;;;;4.53;4.13;;;;;;;;;;5039117;28;20212;-69
2023/07/23 10:05:36;;;;;;;8.10;4.63;;;;;;;;;;5039046;28;20207;-68
2023/07/23 10:08:04;;;;;;;5.88;4.22;;;;;;;;;;5038778;28;20214;-67
2023/07/23 10:10:32;;;;;;;5.07;3.60;;;;;;;;;;5038575;28;20601;-67
2023/07/23 10:13:01;;;;;;;5.10;3.83;;;;;;;;;;5038769;28;20272;-67
2023/07/23 10:15:29;;;;;;;7.78;4.32;;;;;;;;;;5038774;28;20241;-67
2023/07/23 10:17:59;;;;;;;6.40;4.32;;;;;;;;;;5038390;28;20233;-67
2023/07/23 10:20:29;;;;;;;5.88;3.88;;;;;;;;;;5038822;28;20231;-67
2023/07/23 10:22:57;;;;;;;7.20;3.75;;;;;;;;;;5038508;28;20211;-70
2023/07/23 10:25:30;;;;;;;4.72;3.50;;;;;;;;;;5038726;28;20211;-68
2023/07/23 10:28:04;;;;;;;5.57;3.63;;;;;;;;;;5038325;28;20207;-67
2023/07/23 10:30:33;;;;;;;6.43;4.10;;;;;;;;;;5041127;28;20222;-69
2023/07/23 10:33:22;;;;;;;7.68;4.88;;;;;;;;;;5050637;28;20332;-68
2023/07/23 10:36:02;;;;;;;10.93;4.68;;;;;;;;;;5056396;28;20230;-70
2023/07/23 10:38:30;;;;;;;7.22;4.68;;;;;;;;;;5058201;28;20217;-69
2023/07/23 10:40:59;;;;;;;7.30;4.32;;;;;;;;;;5048614;28;20223;-69
2023/07/23 10:43:38;;;;;;;6.25;4.32;;;;;;;;;;5038286;28;20207;-67
2023/07/23 10:46:09;;;;;;;7.60;4.78;;;;;;;;;;5038199;28;20206;-68
2023/07/23 10:48:40;;;;;;;8.18;4.70;;;;;;;;;;5038296;28;20289;-68
2023/07/23 10:51:09;;;;;;;5.97;4.47;;;;;;;;;;5038256;28;20234;-68
2023/07/23 10:53:41;;;;;;;6.85;4.85;;;;;;;;;;5045138;28;20238;-68
2023/07/23 10:56:39;;;;;;;9.30;5.22;;;;;;;;;;5058108;28;20234;-68
2023/07/23 10:59:09;;;;;;;7.05;5.05;;;;;;;;;;5031977;28;20217;-69
2023/07/23 11:01:40;;;;;;;6.20;4.85;;;;;;;;;;5042365;28;20690;-69
2023/07/23 11:04:09;;;;;;;7.05;5.20;;;;;;;;;;5038560;28;20571;-68
2023/07/23 11:06:41;;;;;;;8.18;4.43;;;;;;;;;;5038109;28;20200;-68
2023/07/23 11:09:10;;;;;;;11.35;5.45;;;;;;;;;;5037784;28;20214;-69
2023/07/23 11:11:39;;;;;;;6.20;5.13;;;;;;;;;;5037929;28;20254;-70
2023/07/23 11:14:18;;;;;;;9.05;5.68;;;;;;;;;;5037457;28;20214;-68
2023/07/23 11:16:46;;;;;;;7.32;5.03;;;;;;;;;;5037378;28;20268;-68
2023/07/23 11:19:14;;;;;;;8.75;4.80;;;;;;;;;;5037787;28;20290;-68
2023/07/23 11:21:46;;;;;;;9.35;5.30;;;;;;;;;;5037637;28;20231;-68
2023/07/23 11:24:14;;;;;;;10.85;5.38;;;;;;;;;;5037879;28;20211;-68
2023/07/23 11:26:42;;;;;;;9.52;5.50;;;;;;;;;;5037925;28;20272;-68
2023/07/23 11:29:23;;;;;;;8.18;5.32;;;;;;;;;;5037856;28;20242;-69
2023/07/23 11:32:03;;;;;;;10.68;5.95;;;;;;;;;;5051867;28;20270;-63
2023/07/23 11:34:31;;;;;;;10.05;5.93;;;;;;;;;;5050156;28;20314;-64
2023/07/23 11:36:58;;;;;;;8.70;5.90;;;;;;;;;;5037386;28;20241;-65
2023/07/23 11:39:26;;;;;;;8.88;6.07;;;;;;;;;;5037668;28;20238;-67
2023/07/23 11:41:55;;;;;;;10.65;6.82;;;;;;;;;;5043042;28;20215;-67
2023/07/23 11:44:23;;;;;;;11.25;6.15;;;;;;;;;;5037633;28;20215;-65
2023/07/23 11:46:59;;;;;;;9.77;5.85;;;;;;;;;;5037008;28;20222;-65
2023/07/23 11:49:28;;;;;;;11.70;6.70;;;;;;;;;;5037368;28;20575;-65
2023/07/23 11:51:58;;;;;;;8.13;5.53;;;;;;;;;;5037158;28;20212;-65
2023/07/23 11:54:25;;;;;;;8.38;6.03;;;;;;;;;;5037579;28;20283;-64
2023/07/23 11:56:53;;;;;;;8.20;5.70;;;;;;;;;;5036910;28;20227;-63
2023/07/23 11:59:21;;;;;;;9.63;6.13;;;;;;;;;;5042372;28;20212;-64
2023/07/23 12:01:49;;;;;;;11.05;6.28;;;;;;;;;;5039194;28;20321;-72
2023/07/23 12:04:17;;;;;;;11.80;6.63;;;;;;;;;;5037507;28;20207;-67
2023/07/23 12:06:46;;;;;;;7.93;6.22;;;;;;;;;;5037333;28;20199;-67
2023/07/23 12:09:14;;;;;;;10.63;6.63;;;;;;;;;;5037126;28;20583;-65
2023/07/23 12:11:42;;;;;;;10.32;6.72;;;;;;;;;;5038340;28;20233;-65
2023/07/23 12:14:15;;;;;;;11.32;6.72;;;;;;;;;;5041104;28;20241;-64
2023/07/23 12:16:43;;;;;;;9.52;6.05;;;;;;;;;;5047717;28;20280;-70
2023/07/23 12:19:13;;;;;;;9.95;6.57;;;;;;;;;;5060975;28;20244;-65
2023/07/23 12:21:42;;;;;;;11.65;6.43;;;;;;;;;;5060699;28;20640;-64
2023/07/23 12:24:17;;;;;;;11.60;6.25;;;;;;;;;;5058670;28;20203;-66
2023/07/23 12:26:53;;;;;;;9.50;5.90;;;;;;;;;;5040943;28;20634;-66
2023/07/23 12:29:26;;;;;;;9.52;6.63;;;;;;;;;;5040254;28;20277;-66
2023/07/23 12:32:08;;;;;;;8.77;5.80;;;;;;;;;;5052878;28;20249;-65
2023/07/23 12:34:44;;;;;;;9.95;5.93;;;;;;;;;;5058552;28;20697;-66
2023/07/23 12:37:20;;;;;;;8.07;6.03;;;;;;;;;;5059909;28;20226;-66
2023/07/23 12:39:49;;;;;;;9.77;7.07;;;;;;;;;;5060103;28;20668;-65
2023/07/23 12:42:17;;;;;;;9.20;5.60;;;;;;;;;;5051719;28;20231;-65
2023/07/23 12:44:44;;;;;;;9.18;6.05;;;;;;;;;;5059242;28;20210;-65
2023/07/23 12:47:12;;;;;;;9.80;6.25;;;;;;;;;;5060189;28;20289;-66
2023/07/23 12:49:40;;;;;;;8.00;5.55;;;;;;;;;;5060009;28;20674;-66
2023/07/23 12:52:08;;;;;;;8.80;6.40;;;;;;;;;;5060290;28;20213;-66
2023/07/23 12:54:36;;;;;;;10.35;6.10;;;;;;;;;;5060147;28;20217;-66
2023/07/23 12:57:05;;;;;;;7.45;5.65;;;;;;;;;;5059828;28;20222;-65
2023/07/23 12:59:36;;;;;;;9.55;5.72;;;;;;;;;;5060213;28;20237;-65
2023/07/23 13:02:04;;;;;;;9.02;6.05;;;;;;;;;;5045239;28;20214;-65
2023/07/23 13:04:32;;;;;;;9.93;6.30;;;;;;;;;;5040597;28;20674;-65
2023/07/23 13:06:59;;;;;;;11.48;5.93;;;;;;;;;;5039813;28;20543;-65
2023/07/23 13:09:27;;;;;;;9.32;6.07;;;;;;;;;;5039938;28;20294;-66
2023/07/23 13:11:55;;;;;;;9.98;6.45;;;;;;;;;;5039653;28;20621;-65
2023/07/23 13:14:24;;;;;;;9.68;6.80;;;;;;;;;;5040065;28;20573;-65
2023/07/23 13:16:52;;;;;;;8.20;5.97;;;;;;;;;;5039635;28;20231;-65
2023/07/23 13:19:20;;;;;;;7.10;5.63;;;;;;;;;;5039741;28;20642;-65
2023/07/23 13:21:48;;;;;;;14.75;7.53;;;;;;;;;;5039671;28;20222;-67
2023/07/23 13:24:15;;;;;;;8.73;6.13;;;;;;;;;;5039017;28;20235;-65
2023/07/23 13:26:43;;;;;;;8.45;6.07;;;;;;;;;;5039532;28;20265;-65
2023/07/23 13:29:11;;;;;;;11.00;5.85;;;;;;;;;;5039958;28;20294;-65
2023/07/23 13:31:40;;;;;;;10.43;6.88;;;;;;;;;;5050492;28;20227;-65
2023/07/23 13:34:08;;;;;;;12.07;7.82;;;;;;;;;;5042170;28;20242;-65
2023/07/23 13:36:35;;;;;;;11.23;7.40;;;;;;;;;;5039312;28;20207;-65
2023/07/23 13:39:03;;;;;;;11.27;7.63;;;;;;;;;;5039116;28;20237;-65
2023/07/23 13:41:31;;;;;;;12.85;7.10;;;;;;;;;;5045041;28;20229;-65
2023/07/23 13:43:59;;;;;;;9.55;6.43;;;;;;;;;;5039574;28;20221;-65
2023/07/23 13:46:29;;;;;;;12.05;8.00;;;;;;;;;;5038959;28;20657;-65
2023/07/23 13:48:59;;;;;;;11.05;7.38;;;;;;;;;;5039074;28;20573;-65
2023/07/23 13:51:26;;;;;;;9.93;7.20;;;;;;;;;;5038944;28;20231;-65
2023/07/23 13:53:54;;;;;;;11.50;6.97;;;;;;;;;;5039177;28;20655;-65
2023/07/23 13:56:22;;;;;;;10.27;6.72;;;;;;;;;;5039241;28;20214;-65
2023/07/23 13:58:49;;;;;;;10.15;7.07;;;;;;;;;;5040395;28;20235;-65
2023/07/23 14:01:17;;;;;;;12.38;7.13;;;;;;;;;;5044626;28;20237;-67
2023/07/23 14:03:45;;;;;;;9.75;7.53;;;;;;;;;;5039092;28;20218;-67
2023/07/23 14:06:16;;;;;;;10.85;7.18;;;;;;;;;;5038660;28;20733;-66
2023/07/23 14:08:44;;;;;;;10.45;6.78;;;;;;;;;;5038977;28;20290;-67
2023/07/23 14:11:12;;;;;;;10.00;6.53;;;;;;;;;;5038527;28;20231;-65
2023/07/23 14:13:39;;;;;;;8.85;6.53;;;;;;;;;;5039010;28;20211;-67
2023/07/23 14:16:07;;;;;;;10.27;5.80;;;;;;;;;;5038468;28;20287;-66
2023/07/23 14:18:35;;;;;;;7.88;5.90;;;;;;;;;;5038627;28;20234;-67
2023/07/23 14:21:03;;;;;;;9.55;6.20;;;;;;;;;;5038614;28;20231;-67
2023/07/23 14:23:33;;;;;;;8.73;5.55;;;;;;;;;;5038453;28;20218;-67
2023/07/23 14:26:00;;;;;;;10.00;5.45;;;;;;;;;;5038744;28;20211;-67
2023/07/23 14:28:28;;;;;;;8.88;6.03;;;;;;;;;;5038753;28;20213;-67
2023/07/23 14:30:56;;;;;;;10.88;5.90;;;;;;;;;;5043801;28;20282;-67
2023/07/23 14:33:24;;;;;;;8.38;5.60;;;;;;;;;;5047266;28;20247;-67
2023/07/23 14:35:53;;;;;;;9.45;6.18;;;;;;;;;;5037931;28;20527;-65
2023/07/23 14:38:21;;;;;;;9.07;5.68;;;;;;;;;;5037952;28;20231;-67
2023/07/23 14:40:50;;;;;;;9.25;5.90;;;;;;;;;;5043488;28;20223;-67
2023/07/23 14:43:18;;;;;;;7.78;5.45;;;;;;;;;;5048934;28;20685;-67
2023/07/23 14:45:48;;;;;;;8.68;5.72;;;;;;;;;;5044769;28;20211;-67
2023/07/23 14:48:16;;;;;;;6.57;5.30;;;;;;;;;;5058164;28;20206;-67
2023/07/23 14:50:45;;;;;;;7.15;5.35;;;;;;;;;;5058194;28;20269;-67